createdAt,value
2023-04-27T00:00:28.003Z,9.13
2023-04-27T00:01:30.800Z,9.14
2023-04-27T00:02:33.880Z,9.13
2023-04-27T00:03:36.606Z,8.90
2023-04-27T00:04:39.614Z,8.97
2023-04-27T00:05:42.463Z,9.11
2023-04-27T00:06:45.894Z,9.16
2023-04-27T00:07:48.948Z,9.14
2023-04-27T00:08:51.310Z,8.98
2023-04-27T00:09:54.330Z,9.01
2023-04-27T00:10:57.092Z,8.99
2023-04-27T00:11:59.706Z,8.81
2023-04-27T00:13:02.418Z,8.63
2023-04-27T00:14:06.337Z,8.63
2023-04-27T00:15:10.715Z,8.54
2023-04-27T00:16:13.976Z,8.35
2023-04-27T00:17:16.285Z,8.29
2023-04-27T00:18:18.887Z,8.25
2023-04-27T00:19:22.136Z,8.33
2023-04-27T00:20:24.748Z,8.31
2023-04-27T00:21:27.150Z,8.32
2023-04-27T00:22:29.289Z,8.45
2023-04-27T00:23:31.687Z,8.60
2023-04-27T00:24:34.109Z,8.57
2023-04-27T00:25:36.613Z,8.32
2023-04-27T00:26:39.341Z,8.23
2023-04-27T00:27:41.893Z,8.28
2023-04-27T00:28:44.798Z,8.10
2023-04-27T00:29:47.421Z,8.06
2023-04-27T00:30:50.050Z,8.18
2023-04-27T00:31:52.798Z,8.29
2023-04-27T00:32:57.150Z,8.27
2023-04-27T00:34:00.123Z,8.11
2023-04-27T00:35:03.018Z,8.08
2023-04-27T00:36:06.388Z,8.23
2023-04-27T00:37:09.467Z,8.43
2023-04-27T00:38:12.031Z,8.44
2023-04-27T00:39:14.666Z,8.33
2023-04-27T00:40:19.901Z,8.24
2023-04-27T00:41:22.516Z,8.33
2023-04-27T00:42:24.920Z,8.43
2023-04-27T00:43:27.346Z,8.32
2023-04-27T00:44:30.350Z,8.39
2023-04-27T00:45:39.184Z,8.28
2023-04-27T00:46:42.756Z,8.32
2023-04-27T00:47:45.704Z,8.39
2023-04-27T00:48:48.207Z,8.40
2023-04-27T00:49:51.150Z,8.41
2023-04-27T00:50:54.566Z,8.44
2023-04-27T00:51:57.336Z,8.32
2023-04-27T00:53:01.652Z,8.22
2023-04-27T00:54:05.555Z,8.10
2023-04-27T00:55:08.947Z,8.14
2023-04-27T00:56:12.717Z,8.13
2023-04-27T00:57:16.918Z,8.22
2023-04-27T00:58:19.919Z,8.33
2023-04-27T00:59:22.341Z,8.35
2023-04-27T01:00:25.054Z,8.53
2023-04-27T01:01:30.264Z,8.46
2023-04-27T01:02:33.240Z,8.44
2023-04-27T01:03:36.047Z,8.44
2023-04-27T01:04:38.639Z,8.43
2023-04-27T01:05:41.928Z,8.36
2023-04-27T01:06:45.660Z,8.33
2023-04-27T01:07:48.748Z,8.39
2023-04-27T01:08:51.243Z,8.35
2023-04-27T01:09:53.679Z,8.35
2023-04-27T01:10:56.190Z,8.10
2023-04-27T01:11:58.754Z,7.89
2023-04-27T01:13:03.920Z,7.76
2023-04-27T01:14:07.292Z,7.76
2023-04-27T01:15:11.153Z,7.69
2023-04-27T01:16:17.562Z,7.77
2023-04-27T01:17:20.483Z,7.78
2023-04-27T01:18:22.999Z,7.85
2023-04-27T01:19:25.542Z,8.03
2023-04-27T01:20:29.827Z,8.00
2023-04-27T01:21:32.084Z,7.97
2023-04-27T01:22:34.307Z,7.96
2023-04-27T01:23:37.618Z,8.04
2023-04-27T01:24:41.050Z,8.14
2023-04-27T01:25:43.099Z,8.07
2023-04-27T01:26:45.443Z,7.90
2023-04-27T01:27:48.524Z,7.81
2023-04-27T01:28:50.985Z,7.63
2023-04-27T01:29:53.512Z,7.67
2023-04-27T01:30:56.390Z,7.64
2023-04-27T01:32:00.837Z,7.57
2023-04-27T01:33:03.716Z,7.56
2023-04-27T01:34:06.052Z,7.61
2023-04-27T01:35:09.310Z,7.54
2023-04-27T01:36:11.987Z,7.55
2023-04-27T01:37:15.300Z,7.41
2023-04-27T01:38:19.854Z,7.21
2023-04-27T01:39:22.586Z,7.03
2023-04-27T01:40:25.492Z,7.00
2023-04-27T01:41:28.988Z,6.98
2023-04-27T01:42:31.324Z,7.02
2023-04-27T01:43:33.574Z,6.92
2023-04-27T01:44:36.748Z,7.03
2023-04-27T01:45:41.281Z,7.10
2023-04-27T01:46:43.971Z,6.94
2023-04-27T01:47:46.475Z,6.92
2023-04-27T01:48:49.374Z,6.83
2023-04-27T01:49:51.849Z,7.13
2023-04-27T01:50:54.832Z,7.25
2023-04-27T01:51:57.720Z,7.27
2023-04-27T01:53:00.304Z,7.27
2023-04-27T01:54:04.256Z,7.29
2023-04-27T01:55:07.437Z,7.00
2023-04-27T01:56:10.338Z,6.90
2023-04-27T01:57:13.804Z,6.93
2023-04-27T01:58:16.050Z,6.97
2023-04-27T01:59:19.512Z,6.97
2023-04-27T02:00:21.968Z,7.01
2023-04-27T02:01:24.312Z,7.11
2023-04-27T02:02:26.797Z,7.18
2023-04-27T02:03:29.441Z,7.24
2023-04-27T02:04:32.056Z,7.21
2023-04-27T02:05:34.394Z,7.02
2023-04-27T02:06:36.805Z,6.81
2023-04-27T02:07:39.119Z,6.77
2023-04-27T02:08:41.462Z,6.84
2023-04-27T02:09:45.059Z,6.65
2023-04-27T02:10:49.326Z,6.69
2023-04-27T02:11:52.607Z,6.79
2023-04-27T02:12:55.141Z,7.00
2023-04-27T02:13:57.371Z,7.17
2023-04-27T02:15:02.933Z,7.20
2023-04-27T02:16:06.218Z,7.29
2023-04-27T02:17:08.625Z,7.21
2023-04-27T02:18:11.110Z,7.14
2023-04-27T02:19:13.721Z,7.01
2023-04-27T02:20:16.723Z,7.11
2023-04-27T02:21:19.045Z,6.96
2023-04-27T02:22:21.894Z,6.81
2023-04-27T02:23:24.472Z,6.76
2023-04-27T02:24:26.798Z,6.68
2023-04-27T02:25:29.256Z,6.83
2023-04-27T02:26:32.329Z,6.88
2023-04-27T02:27:39.538Z,7.05
2023-04-27T02:28:42.362Z,7.10
2023-04-27T02:29:45.365Z,7.19
2023-04-27T02:30:49.059Z,7.27
2023-04-27T02:31:51.630Z,7.20
2023-04-27T02:32:53.990Z,7.27
2023-04-27T02:33:56.271Z,6.88
2023-04-27T02:35:00.823Z,6.86
2023-04-27T02:36:04.340Z,6.73
2023-04-27T02:37:06.981Z,6.41
2023-04-27T02:38:10.305Z,6.52
2023-04-27T02:39:13.827Z,6.71
2023-04-27T02:40:17.065Z,6.77
2023-04-27T02:41:19.640Z,6.77
2023-04-27T02:42:22.163Z,6.80
2023-04-27T02:43:24.845Z,6.80
2023-04-27T02:44:27.261Z,6.69
2023-04-27T02:45:29.691Z,6.75
2023-04-27T02:46:33.925Z,6.58
2023-04-27T02:47:36.469Z,6.73
2023-04-27T02:48:39.041Z,6.85
2023-04-27T02:49:41.603Z,6.79
2023-04-27T02:50:44.614Z,6.73
2023-04-27T02:51:47.334Z,6.67
2023-04-27T02:52:49.913Z,6.44
2023-04-27T02:53:54.735Z,6.56
2023-04-27T02:54:57.132Z,6.59
2023-04-27T02:55:59.420Z,6.48
2023-04-27T02:57:02.078Z,6.48
2023-04-27T02:58:04.877Z,6.50
2023-04-27T02:59:08.186Z,6.48
2023-04-27T03:00:11.881Z,6.48
2023-04-27T03:01:16.713Z,6.44
2023-04-27T03:02:19.379Z,6.52
2023-04-27T03:03:22.786Z,6.31
2023-04-27T03:04:25.352Z,6.34
2023-04-27T03:05:29.048Z,6.34
2023-04-27T03:06:31.548Z,6.34
2023-04-27T03:07:33.778Z,6.44
2023-04-27T03:08:38.605Z,6.53
2023-04-27T03:09:41.089Z,6.63
2023-04-27T03:10:43.623Z,6.54
2023-04-27T03:11:45.950Z,6.51
2023-04-27T03:12:48.139Z,6.51
2023-04-27T03:13:50.230Z,6.64
2023-04-27T03:14:52.793Z,6.73
2023-04-27T03:15:55.224Z,6.58
2023-04-27T03:16:57.885Z,6.37
2023-04-27T03:18:00.438Z,6.40
2023-04-27T03:19:03.326Z,6.54
2023-04-27T03:20:10.243Z,6.75
2023-04-27T03:21:12.911Z,6.62
2023-04-27T03:22:16.180Z,6.52
2023-04-27T03:23:18.410Z,6.48
2023-04-27T03:24:21.328Z,6.59
2023-04-27T03:25:26.172Z,6.66
2023-04-27T03:26:29.865Z,6.58
2023-04-27T03:27:32.950Z,6.75
2023-04-27T03:28:36.282Z,6.65
2023-04-27T03:29:38.767Z,6.55
2023-04-27T03:30:41.525Z,6.63
2023-04-27T03:31:44.137Z,6.70
2023-04-27T03:32:47.737Z,6.73
2023-04-27T03:33:50.297Z,6.78
2023-04-27T03:34:52.835Z,6.73
2023-04-27T03:35:58.899Z,6.35
2023-04-27T03:37:01.800Z,6.37
2023-04-27T03:38:04.290Z,6.18
2023-04-27T03:39:07.396Z,6.19
2023-04-27T03:40:11.684Z,6.14
2023-04-27T03:41:13.774Z,6.15
2023-04-27T03:42:17.590Z,6.27
2023-04-27T03:43:21.038Z,6.40
2023-04-27T03:44:24.407Z,6.58
2023-04-27T03:45:27.362Z,6.58
2023-04-27T03:46:29.858Z,6.65
2023-04-27T03:47:32.680Z,6.65
2023-04-27T03:48:35.953Z,6.68
2023-04-27T03:49:39.291Z,6.85
2023-04-27T03:50:43.020Z,6.73
2023-04-27T03:51:45.195Z,6.68
2023-04-27T03:52:47.779Z,6.78
2023-04-27T03:53:51.186Z,6.77
2023-04-27T03:54:53.961Z,6.58
2023-04-27T03:55:56.415Z,6.61
2023-04-27T03:56:59.810Z,6.50
2023-04-27T03:58:02.681Z,6.62
2023-04-27T03:59:05.764Z,6.67
2023-04-27T04:00:11.945Z,6.81
2023-04-27T04:01:18.166Z,6.87
2023-04-27T04:02:21.598Z,6.76
2023-04-27T04:03:24.203Z,6.78
2023-04-27T04:04:27.065Z,6.92
2023-04-27T04:05:33.208Z,6.59
2023-04-27T04:06:36.447Z,6.69
2023-04-27T04:07:38.692Z,6.70
2023-04-27T04:08:41.430Z,6.79
2023-04-27T04:09:44.550Z,6.79
2023-04-27T04:10:47.018Z,6.86
2023-04-27T04:11:49.430Z,6.90
2023-04-27T04:12:52.474Z,6.60
2023-04-27T04:13:55.035Z,6.55
2023-04-27T04:14:58.504Z,6.46
2023-04-27T04:16:06.860Z,6.35
2023-04-27T04:17:10.438Z,6.37
2023-04-27T04:18:12.820Z,6.48
2023-04-27T04:19:15.773Z,6.59
2023-04-27T04:20:18.733Z,6.72
2023-04-27T04:21:21.265Z,6.69
2023-04-27T04:22:23.793Z,6.75
2023-04-27T04:23:27.321Z,6.76
2023-04-27T04:24:30.182Z,6.86
2023-04-27T04:25:33.147Z,6.90
2023-04-27T04:26:37.353Z,6.96
2023-04-27T04:27:40.594Z,7.00
2023-04-27T04:28:43.656Z,6.88
2023-04-27T04:29:46.116Z,6.98
2023-04-27T04:30:49.997Z,7.06
2023-04-27T04:31:52.953Z,7.05
2023-04-27T04:32:55.633Z,6.79
2023-04-27T04:33:58.022Z,6.79
2023-04-27T04:35:02.113Z,6.65
2023-04-27T04:36:05.322Z,6.61
2023-04-27T04:37:08.802Z,6.51
2023-04-27T04:38:12.831Z,6.33
2023-04-27T04:39:15.801Z,6.35
2023-04-27T04:40:19.194Z,6.30
2023-04-27T04:41:22.968Z,6.34
2023-04-27T04:42:25.793Z,6.36
2023-04-27T04:43:28.775Z,6.42
2023-04-27T04:44:31.055Z,6.44
2023-04-27T04:45:33.904Z,6.47
2023-04-27T04:46:36.766Z,6.36
2023-04-27T04:47:39.610Z,6.31
2023-04-27T04:48:42.086Z,6.18
2023-04-27T04:49:44.762Z,6.41
2023-04-27T04:50:47.428Z,6.33
2023-04-27T04:51:50.129Z,6.42
2023-04-27T04:52:52.461Z,6.43
2023-04-27T04:53:54.864Z,6.38
2023-04-27T04:54:58.367Z,6.44
2023-04-27T04:56:14.058Z,6.43
2023-04-27T04:57:16.639Z,6.50
2023-04-27T04:58:18.965Z,6.58
2023-04-27T04:59:21.610Z,6.50
2023-04-27T05:00:24.332Z,6.39
2023-04-27T05:01:26.910Z,6.38
2023-04-27T05:02:29.580Z,6.50
2023-04-27T05:03:32.749Z,6.50
2023-04-27T05:04:35.431Z,6.34
2023-04-27T05:05:37.873Z,6.36
2023-04-27T05:06:40.178Z,6.29
2023-04-27T05:07:42.703Z,6.22
2023-04-27T05:08:46.158Z,6.32
2023-04-27T05:09:48.224Z,6.25
2023-04-27T05:10:51.541Z,6.18
2023-04-27T05:11:53.646Z,6.11
2023-04-27T05:12:55.878Z,6.01
2023-04-27T05:13:58.220Z,6.03
2023-04-27T05:15:00.558Z,5.88
2023-04-27T05:16:06.981Z,6.05
2023-04-27T05:17:09.289Z,6.02
2023-04-27T05:18:11.519Z,6.16
2023-04-27T05:19:15.853Z,6.13
2023-04-27T05:20:18.538Z,6.13
2023-04-27T05:21:21.624Z,6.17
2023-04-27T05:22:24.613Z,6.29
2023-04-27T05:23:27.330Z,6.42
2023-04-27T05:24:29.581Z,6.52
2023-04-27T05:25:32.581Z,6.46
2023-04-27T05:26:35.258Z,6.65
2023-04-27T05:27:37.951Z,6.68
2023-04-27T05:28:41.121Z,6.63
2023-04-27T05:29:43.761Z,6.50
2023-04-27T05:30:46.017Z,6.51
2023-04-27T05:31:49.069Z,6.58
2023-04-27T05:32:52.642Z,6.70
2023-04-27T05:33:55.963Z,6.78
2023-04-27T05:34:58.135Z,6.63
2023-04-27T05:36:00.568Z,6.51
2023-04-27T05:37:02.871Z,6.52
2023-04-27T05:38:05.197Z,6.59
2023-04-27T05:39:07.639Z,6.37
2023-04-27T05:40:11.921Z,6.47
2023-04-27T05:41:14.316Z,6.34
2023-04-27T05:42:16.359Z,6.44
2023-04-27T05:43:19.341Z,6.49
2023-04-27T05:44:22.746Z,6.40
2023-04-27T05:45:26.179Z,6.30
2023-04-27T05:46:29.262Z,6.26
2023-04-27T05:47:31.727Z,6.25
2023-04-27T05:48:34.096Z,6.38
2023-04-27T05:49:37.016Z,6.44
2023-04-27T05:50:40.587Z,6.44
2023-04-27T05:51:42.729Z,6.35
2023-04-27T05:52:44.781Z,6.33
2023-04-27T05:53:47.539Z,6.36
2023-04-27T05:54:50.758Z,6.29
2023-04-27T05:55:53.332Z,6.37
2023-04-27T05:56:56.940Z,6.22
2023-04-27T05:58:07.695Z,6.25
2023-04-27T05:59:05.943Z,6.34
2023-04-27T06:00:11.025Z,6.45
2023-04-27T06:01:16.411Z,6.50
2023-04-27T06:02:20.056Z,6.38
2023-04-27T06:03:22.720Z,6.23
2023-04-27T06:04:27.412Z,6.32
2023-04-27T06:05:29.907Z,6.35
2023-04-27T06:06:32.712Z,6.34
2023-04-27T06:07:36.632Z,6.20
2023-04-27T06:08:39.085Z,6.20
2023-04-27T06:09:41.904Z,6.33
2023-04-27T06:10:44.052Z,6.29
2023-04-27T06:11:46.953Z,6.18
2023-04-27T06:12:49.223Z,6.17
2023-04-27T06:13:51.333Z,6.19
2023-04-27T06:14:53.238Z,6.28
2023-04-27T06:15:56.265Z,6.33
2023-04-27T06:16:59.042Z,6.27
2023-04-27T06:18:01.949Z,6.11
2023-04-27T06:19:04.458Z,6.05
2023-04-27T06:20:08.667Z,5.93
2023-04-27T06:21:11.070Z,6.02
2023-04-27T06:22:13.297Z,6.12
2023-04-27T06:23:15.729Z,6.08
2023-04-27T06:24:18.277Z,6.29
2023-04-27T06:25:22.830Z,6.64
2023-04-27T06:26:26.472Z,6.92
2023-04-27T06:27:29.385Z,6.59
2023-04-27T06:28:32.252Z,6.74
2023-04-27T06:29:34.951Z,6.50
2023-04-27T06:30:39.600Z,6.32
2023-04-27T06:31:42.143Z,6.42
2023-04-27T06:32:44.406Z,6.46
2023-04-27T06:33:47.457Z,6.28
2023-04-27T06:34:51.250Z,6.46
2023-04-27T06:35:53.753Z,6.54
2023-04-27T06:36:56.078Z,6.65
2023-04-27T06:37:59.062Z,6.78
2023-04-27T06:39:01.620Z,6.75
2023-04-27T06:40:04.626Z,6.86
2023-04-27T06:41:07.673Z,6.53
2023-04-27T06:42:09.960Z,6.30
2023-04-27T06:43:13.025Z,6.31
2023-04-27T06:44:15.217Z,6.65
2023-04-27T06:45:17.233Z,7.06
2023-04-27T06:46:20.786Z,6.55
2023-04-27T06:47:24.397Z,6.53
2023-04-27T06:48:27.610Z,6.53
2023-04-27T06:49:30.567Z,6.52
2023-04-27T06:50:33.047Z,6.41
2023-04-27T06:51:35.503Z,6.53
2023-04-27T06:52:37.626Z,6.47
2023-04-27T06:53:39.727Z,6.51
2023-04-27T06:54:42.062Z,6.39
2023-04-27T06:55:46.846Z,6.50
2023-04-27T06:56:54.367Z,6.58
2023-04-27T06:57:56.431Z,6.69
2023-04-27T06:58:59.066Z,6.78
2023-04-27T07:00:02.578Z,6.78
2023-04-27T07:01:05.013Z,6.77
2023-04-27T07:02:07.386Z,6.79
2023-04-27T07:03:09.753Z,6.86
2023-04-27T07:04:13.251Z,6.88
2023-04-27T07:05:15.887Z,6.80
2023-04-27T07:06:18.591Z,6.91
2023-04-27T07:07:21.038Z,6.87
2023-04-27T07:08:23.262Z,6.72
2023-04-27T07:09:27.879Z,7.11
2023-04-27T07:10:29.984Z,7.02
2023-04-27T07:11:32.386Z,7.02
2023-04-27T07:12:42.092Z,7.06
2023-04-27T07:13:47.528Z,7.09
2023-04-27T07:14:50.509Z,7.05
2023-04-27T07:16:00.335Z,7.16
2023-04-27T07:17:02.694Z,7.34
2023-04-27T07:18:05.755Z,7.32
2023-04-27T07:19:08.149Z,7.11
2023-04-27T07:20:14.203Z,7.20
2023-04-27T07:21:17.141Z,7.39
2023-04-27T07:22:19.520Z,7.42
2023-04-27T07:23:21.957Z,7.07
2023-04-27T07:24:24.329Z,6.92
2023-04-27T07:25:27.630Z,6.88
2023-04-27T07:26:31.389Z,7.21
2023-04-27T07:27:35.072Z,7.03
2023-04-27T07:28:38.694Z,6.99
2023-04-27T07:29:41.785Z,6.99
2023-04-27T07:30:44.766Z,6.57
2023-04-27T07:31:47.121Z,6.42
2023-04-27T07:32:54.911Z,6.40
2023-04-27T07:33:57.572Z,6.41
2023-04-27T07:35:00.293Z,6.45
2023-04-27T07:36:03.205Z,6.48
2023-04-27T07:37:08.561Z,6.39
2023-04-27T07:38:18.513Z,6.29
2023-04-27T07:39:20.740Z,6.28
2023-04-27T07:40:24.136Z,6.36
2023-04-27T07:42:46.122Z,6.49
2023-04-27T07:43:53.821Z,6.50
2023-04-27T07:44:57.021Z,6.47
2023-04-27T07:45:59.289Z,6.55
2023-04-27T07:47:03.449Z,6.43
2023-04-27T07:48:06.028Z,6.44
2023-04-27T07:49:08.079Z,6.44
2023-04-27T07:50:12.230Z,6.45
2023-04-27T07:51:19.570Z,6.31
2023-04-27T07:52:21.939Z,6.48
2023-04-27T07:53:24.338Z,6.43
2023-04-27T07:54:27.618Z,6.33
2023-04-27T07:55:29.986Z,6.19
2023-04-27T07:56:32.474Z,6.19
2023-04-27T07:57:34.706Z,6.25
2023-04-27T07:58:37.500Z,6.26
2023-04-27T07:59:39.995Z,6.27
2023-04-27T08:00:46.346Z,6.19
2023-04-27T08:01:49.856Z,6.21
2023-04-27T08:02:53.836Z,6.21
2023-04-27T08:03:56.753Z,6.26
2023-04-27T08:04:59.800Z,6.15
2023-04-27T08:06:04.123Z,6.21
2023-04-27T08:07:07.960Z,6.39
2023-04-27T08:08:11.414Z,6.44
2023-04-27T08:09:14.024Z,6.44
2023-04-27T08:10:16.935Z,6.38
2023-04-27T08:11:21.060Z,6.33
2023-04-27T08:12:23.218Z,6.43
2023-04-27T08:13:25.627Z,6.44
2023-04-27T08:14:27.968Z,6.44
2023-04-27T08:15:30.600Z,6.36
2023-04-27T08:16:32.991Z,6.23
2023-04-27T08:17:36.567Z,6.23
2023-04-27T08:18:39.983Z,6.39
2023-04-27T08:19:42.180Z,6.34
2023-04-27T08:20:44.665Z,6.35
2023-04-27T08:21:47.795Z,6.35
2023-04-27T08:22:50.777Z,6.36
2023-04-27T08:23:52.961Z,6.20
2023-04-27T08:24:55.761Z,6.30
2023-04-27T08:25:58.192Z,6.40
2023-04-27T08:27:01.840Z,6.39
2023-04-27T08:28:04.685Z,6.31
2023-04-27T08:29:15.761Z,6.19
2023-04-27T08:30:12.259Z,6.21
2023-04-27T08:31:15.840Z,6.27
2023-04-27T08:32:18.826Z,6.21
2023-04-27T08:33:21.403Z,6.22
2023-04-27T08:34:23.841Z,6.31
2023-04-27T08:35:26.520Z,6.33
2023-04-27T08:36:29.711Z,6.43
2023-04-27T08:37:32.370Z,6.43
2023-04-27T08:38:35.425Z,6.49
2023-04-27T08:39:37.935Z,6.49
2023-04-27T08:40:43.641Z,6.49
2023-04-27T08:41:46.345Z,6.61
2023-04-27T08:42:56.829Z,6.68
2023-04-27T08:43:59.729Z,6.65
2023-04-27T08:45:02.166Z,6.73
2023-04-27T08:46:04.922Z,6.62
2023-04-27T08:47:08.921Z,6.66
2023-04-27T08:48:11.239Z,6.81
2023-04-27T08:49:15.973Z,6.75
2023-04-27T08:50:19.249Z,6.72
2023-04-27T08:51:22.217Z,6.82
2023-04-27T08:52:24.521Z,6.91
2023-04-27T08:53:26.651Z,6.97
2023-04-27T08:54:28.798Z,6.93
2023-04-27T08:55:31.379Z,6.72
2023-04-27T08:56:33.810Z,6.60
2023-04-27T08:57:36.528Z,6.60
2023-04-27T08:58:39.039Z,6.78
2023-04-27T08:59:43.994Z,6.79
2023-04-27T09:00:47.391Z,6.73
2023-04-27T09:01:50.535Z,6.64
2023-04-27T09:02:53.562Z,6.66
2023-04-27T09:03:58.346Z,6.61
2023-04-27T09:05:02.641Z,6.63
2023-04-27T09:06:06.432Z,6.61
2023-04-27T09:07:16.898Z,6.61
2023-04-27T09:08:19.276Z,6.53
2023-04-27T09:09:24.000Z,6.43
2023-04-27T09:10:29.719Z,6.52
2023-04-27T09:11:35.222Z,6.65
2023-04-27T09:12:39.875Z,6.52
2023-04-27T09:13:44.876Z,6.38
2023-04-27T09:15:03.268Z,6.38
2023-04-27T09:16:06.737Z,6.38
2023-04-27T09:17:09.209Z,6.51
2023-04-27T09:18:20.071Z,6.46
2023-04-27T09:19:28.269Z,6.49
2023-04-27T09:20:30.542Z,6.49
2023-04-27T09:21:33.355Z,6.60
2023-04-27T09:22:51.315Z,6.67
2023-04-27T09:23:54.697Z,6.59
2023-04-27T09:24:57.803Z,6.66
2023-04-27T09:26:03.629Z,6.67
2023-04-27T09:27:08.190Z,6.52
2023-04-27T09:28:14.010Z,6.44
2023-04-27T09:29:18.908Z,6.62
2023-04-27T09:30:21.472Z,6.55
2023-04-27T09:31:34.961Z,6.59
2023-04-27T09:32:38.017Z,6.68
2023-04-27T09:33:40.636Z,6.67
2023-04-27T09:34:43.174Z,6.74
2023-04-27T09:35:46.749Z,6.82
2023-04-27T09:36:50.429Z,6.98
2023-04-27T09:37:54.834Z,6.91
2023-04-27T09:38:58.439Z,6.85
2023-04-27T09:40:04.213Z,6.90
2023-04-27T09:41:08.371Z,7.04
2023-04-27T09:42:12.644Z,7.02
2023-04-27T09:43:15.383Z,6.95
2023-04-27T09:44:18.201Z,6.96
2023-04-27T09:45:20.809Z,6.90
2023-04-27T09:46:25.126Z,7.12
2023-04-27T09:47:29.268Z,7.18
2023-04-27T09:48:31.610Z,7.32
2023-04-27T09:49:34.543Z,7.32
2023-04-27T09:50:40.519Z,7.14
2023-04-27T09:51:42.707Z,7.32
2023-04-27T09:52:48.415Z,7.29
2023-04-27T09:53:54.238Z,7.29
2023-04-27T09:54:58.320Z,7.33
2023-04-27T09:56:31.875Z,7.34
2023-04-27T09:57:40.491Z,7.26
2023-04-27T09:59:07.192Z,7.09
2023-04-27T10:00:22.836Z,7.15
2023-04-27T10:01:41.431Z,7.15
2023-04-27T10:02:59.859Z,7.20
2023-04-27T10:04:39.503Z,7.22
2023-04-27T10:05:52.666Z,7.21
2023-04-27T10:07:12.258Z,7.22
2023-04-27T10:08:14.921Z,7.24
2023-04-27T10:10:47.483Z,7.66
2023-04-27T10:11:51.612Z,7.57
2023-04-27T10:13:03.019Z,7.51
2023-04-27T10:14:10.540Z,7.58
2023-04-27T10:15:15.989Z,7.61
2023-04-27T10:16:19.735Z,7.71
2023-04-27T10:17:33.508Z,7.72
2023-04-27T10:18:35.890Z,7.77
2023-04-27T10:19:38.222Z,7.50
2023-04-27T10:20:41.160Z,7.30
2023-04-27T10:22:02.560Z,7.31
2023-04-27T10:23:05.468Z,7.16
2023-04-27T10:24:09.009Z,7.17
2023-04-27T10:25:22.807Z,7.19
2023-04-27T10:26:28.332Z,7.26
2023-04-27T10:27:34.111Z,7.22
2023-04-27T10:28:39.569Z,7.12
2023-04-27T10:29:44.178Z,7.13
2023-04-27T10:30:49.537Z,7.19
2023-04-27T10:31:52.343Z,7.28
2023-04-27T10:32:56.865Z,7.30
2023-04-27T10:34:08.560Z,7.33
2023-04-27T10:35:11.507Z,7.36
2023-04-27T10:36:15.806Z,7.35
2023-04-27T10:37:24.033Z,7.30
2023-04-27T10:38:30.818Z,7.31
2023-04-27T10:41:06.710Z,7.36
2023-04-27T10:42:10.194Z,7.17
2023-04-27T10:43:16.025Z,7.05
2023-04-27T10:44:30.431Z,7.19
2023-04-27T10:45:34.621Z,7.13
2023-04-27T10:46:39.343Z,7.29
2023-04-27T10:47:45.294Z,7.23
2023-04-27T10:48:48.166Z,7.30
2023-04-27T10:49:55.570Z,7.40
2023-04-27T10:51:00.410Z,7.39
2023-04-27T10:52:04.508Z,7.38
2023-04-27T10:53:08.321Z,7.16
2023-04-27T10:54:11.850Z,7.19
2023-04-27T10:55:22.319Z,7.26
2023-04-27T10:56:26.071Z,7.26
2023-04-27T10:57:28.376Z,7.35
2023-04-27T10:58:41.466Z,7.45
2023-04-27T10:59:37.569Z,7.39
2023-04-27T11:00:43.118Z,7.34
2023-04-27T11:01:51.241Z,7.27
2023-04-27T11:02:55.066Z,7.17
2023-04-27T11:03:59.323Z,7.21
2023-04-27T11:05:03.870Z,7.13
2023-04-27T11:06:06.816Z,7.21
2023-04-27T11:07:10.420Z,7.06
2023-04-27T11:08:15.578Z,6.95
2023-04-27T11:09:27.365Z,7.04
2023-04-27T11:10:30.385Z,7.51
2023-04-27T11:11:34.533Z,7.51
2023-04-27T11:12:37.801Z,7.33
2023-04-27T11:13:43.199Z,7.27
2023-04-27T11:14:45.868Z,7.22
2023-04-27T11:15:59.816Z,7.09
2023-04-27T11:17:03.958Z,7.09
2023-04-27T11:18:07.386Z,7.24
2023-04-27T11:19:10.409Z,7.33
2023-04-27T11:20:15.427Z,7.40
2023-04-27T11:21:21.315Z,7.27
2023-04-27T11:22:24.570Z,7.22
2023-04-27T11:23:28.915Z,7.31
2023-04-27T11:24:32.007Z,7.50
2023-04-27T11:25:36.010Z,7.39
2023-04-27T11:26:38.439Z,7.33
2023-04-27T11:27:42.736Z,7.29
2023-04-27T11:29:07.981Z,7.25
2023-04-27T11:30:20.021Z,7.41
2023-04-27T11:31:23.916Z,7.43
2023-04-27T11:32:26.368Z,7.31
2023-04-27T11:33:28.892Z,7.21
2023-04-27T11:34:33.092Z,7.34
2023-04-27T11:35:36.525Z,7.40
2023-04-27T11:36:38.872Z,7.48
2023-04-27T11:37:42.232Z,7.44
2023-04-27T11:38:45.711Z,7.30
2023-04-27T11:39:48.297Z,7.39
2023-04-27T11:41:04.363Z,7.50
2023-04-27T11:42:24.867Z,7.43
2023-04-27T11:43:27.722Z,7.37
2023-04-27T11:44:30.045Z,7.32
2023-04-27T11:45:32.425Z,7.34
2023-04-27T11:46:36.265Z,7.39
2023-04-27T11:47:41.098Z,7.10
2023-04-27T11:48:43.626Z,7.01
2023-04-27T11:49:48.289Z,7.01
2023-04-27T11:50:52.841Z,6.99
2023-04-27T11:51:56.981Z,7.02
2023-04-27T11:53:00.956Z,6.97
2023-04-27T11:54:07.479Z,6.93
2023-04-27T11:55:12.162Z,6.85
2023-04-27T11:56:15.240Z,6.89
2023-04-27T11:57:17.682Z,6.93
2023-04-27T11:58:21.064Z,6.96
2023-04-27T11:59:23.653Z,6.93
2023-04-27T12:00:26.247Z,6.91
2023-04-27T12:01:37.600Z,6.95
2023-04-27T12:02:36.773Z,6.97
2023-04-27T12:03:40.764Z,6.92
2023-04-27T12:04:43.878Z,6.77
2023-04-27T12:05:50.789Z,6.74
2023-04-27T12:06:53.436Z,6.72
2023-04-27T12:07:56.502Z,6.81
2023-04-27T12:08:58.814Z,7.11
2023-04-27T12:10:01.301Z,6.78
2023-04-27T12:11:06.626Z,6.78
2023-04-27T12:12:10.568Z,6.79
2023-04-27T12:13:13.812Z,6.67
2023-04-27T12:14:16.841Z,6.62
2023-04-27T12:15:19.603Z,6.70
2023-04-27T12:16:23.439Z,6.73
2023-04-27T12:17:26.436Z,6.73
2023-04-27T12:18:29.848Z,6.70
2023-04-27T12:19:32.619Z,6.70
2023-04-27T12:20:35.250Z,6.64
2023-04-27T12:21:38.811Z,6.64
2023-04-27T12:22:41.314Z,6.79
2023-04-27T12:23:44.416Z,6.82
2023-04-27T12:24:47.828Z,6.85
2023-04-27T12:25:50.526Z,6.91
2023-04-27T12:26:54.027Z,6.89
2023-04-27T12:27:57.909Z,6.97
2023-04-27T12:29:00.679Z,6.88
2023-04-27T12:30:04.057Z,6.71
2023-04-27T12:31:06.477Z,6.82
2023-04-27T12:32:09.219Z,6.81
2023-04-27T12:33:12.165Z,6.86
2023-04-27T12:34:16.376Z,6.77
2023-04-27T12:35:18.936Z,6.83
2023-04-27T12:36:21.378Z,6.90
2023-04-27T12:37:25.432Z,6.85
2023-04-27T12:38:28.403Z,6.75
2023-04-27T12:39:31.378Z,6.70
2023-04-27T12:40:33.768Z,6.66
2023-04-27T12:41:37.177Z,6.73
2023-04-27T12:42:39.433Z,6.69
2023-04-27T12:43:44.078Z,6.76
2023-04-27T12:44:47.282Z,6.84
2023-04-27T12:45:49.635Z,6.91
2023-04-27T12:46:52.308Z,6.68
2023-04-27T12:48:03.460Z,6.68
2023-04-27T12:49:00.193Z,6.82
2023-04-27T12:50:03.265Z,6.84
2023-04-27T12:51:06.693Z,6.93
2023-04-27T12:52:09.592Z,6.97
2023-04-27T12:53:11.827Z,6.99
2023-04-27T12:54:15.002Z,6.91
2023-04-27T12:55:31.575Z,7.02
2023-04-27T12:56:21.593Z,6.97
2023-04-27T12:57:23.935Z,6.97
2023-04-27T12:58:29.025Z,7.02
2023-04-27T12:59:31.995Z,7.04
2023-04-27T13:00:34.433Z,6.91
2023-04-27T13:01:37.514Z,6.92
2023-04-27T13:02:40.877Z,6.93
2023-04-27T13:03:45.217Z,7.01
2023-04-27T13:04:49.442Z,7.07
2023-04-27T13:05:52.805Z,7.01
2023-04-27T13:06:56.061Z,6.88
2023-04-27T13:08:00.616Z,6.87
2023-04-27T13:09:03.685Z,6.89
2023-04-27T13:10:07.634Z,6.88
2023-04-27T13:11:10.137Z,6.81
2023-04-27T13:12:14.734Z,6.88
2023-04-27T13:13:17.201Z,6.80
2023-04-27T13:14:20.355Z,6.85
2023-04-27T13:15:22.657Z,6.85
2023-04-27T13:16:26.471Z,6.85
2023-04-27T13:17:29.647Z,6.88
2023-04-27T13:18:34.325Z,6.85
2023-04-27T13:19:36.068Z,6.91
2023-04-27T13:20:38.484Z,6.92
2023-04-27T13:21:41.137Z,6.93
2023-04-27T13:22:43.535Z,6.87
2023-04-27T13:23:47.268Z,6.81
2023-04-27T13:24:50.861Z,6.77
2023-04-27T13:25:54.421Z,6.81
2023-04-27T13:26:56.699Z,6.73
2023-04-27T13:27:58.966Z,6.74
2023-04-27T13:29:03.732Z,6.67
2023-04-27T13:30:10.260Z,6.70
2023-04-27T13:31:12.743Z,6.74
2023-04-27T13:32:15.600Z,6.79
2023-04-27T13:33:23.031Z,6.73
2023-04-27T13:34:22.084Z,6.78
2023-04-27T13:35:24.268Z,6.83
2023-04-27T13:36:28.241Z,6.89
2023-04-27T13:37:31.158Z,6.88
2023-04-27T13:38:33.344Z,6.85
2023-04-27T13:39:37.599Z,6.88
2023-04-27T13:40:40.593Z,6.87
2023-04-27T13:41:47.152Z,6.82
2023-04-27T13:42:50.226Z,6.84
2023-04-27T13:43:52.490Z,6.79
2023-04-27T13:44:56.436Z,6.77
2023-04-27T13:46:01.469Z,6.68
2023-04-27T13:47:04.653Z,6.73
2023-04-27T13:48:06.870Z,6.69
2023-04-27T13:49:10.568Z,6.74
2023-04-27T13:50:15.014Z,6.77
2023-04-27T13:51:17.434Z,6.82
2023-04-27T13:52:19.573Z,6.76
2023-04-27T13:53:26.256Z,6.72
2023-04-27T13:54:29.172Z,6.67
2023-04-27T13:55:31.559Z,6.74
2023-04-27T13:56:34.509Z,6.79
2023-04-27T13:57:37.851Z,6.86
2023-04-27T13:58:41.774Z,6.97
2023-04-27T13:59:45.359Z,6.90
2023-04-27T14:00:48.529Z,6.92
2023-04-27T14:01:51.891Z,6.98
2023-04-27T14:02:55.460Z,6.93
2023-04-27T14:03:57.755Z,6.88
2023-04-27T14:05:00.509Z,6.88
2023-04-27T14:06:03.082Z,6.94
2023-04-27T14:07:06.202Z,6.84
2023-04-27T14:08:08.479Z,6.90
2023-04-27T14:09:11.912Z,6.91
2023-04-27T14:10:14.971Z,6.90
2023-04-27T14:11:18.599Z,6.82
2023-04-27T14:12:20.979Z,6.86
2023-04-27T14:13:23.204Z,6.97